Alkin Kalkavan — TCOL6 — position and weather

sailwx.info

Track history (hours):
 
Tides and Currents Weather Stations Pressure Air Temp Water Temp Dewpoint Dewpoint Depression Visibility Wind Speed Wind Dir Waves Ship Positions

Alkin Kalkavan

Last reported at 2015-Mar-25 03:29 UTC. Time now 2015-Mar-27 11:58 UTC.
Position N 33°57' E 032°48'.

Length 150 m; draft 6.3 m.

Type: Cargo ship. MMSI: 271000905.

Date/timePositionNaut miles runAvg speedWind from/ knotsBaromVisibWave heightAir tempDewpointWater temp
2015-Mar-25 03:29N 33°57' E 032°48'6015.2
2015-Mar-24 23:33N 33°17' E 033°42'1515.4
2015-Mar-24 22:33N 33°07' E 033°55'1514.8
2015-Mar-24 21:33N 33°01' E 034°11'1515.0
2015-Mar-24 20:33N 32°58' E 034°29'1514.8
2015-Mar-24 19:33N 32°55' E 034°46'5 0.4
2015-Mar-24 05:08N 32°52' E 034°51'915.2
2015-Mar-24 04:34N 32°44' E 034°48'1514.8
2015-Mar-24 03:33N 32°29' E 034°43'1515.1
2015-Mar-24 02:33N 32°15' E 034°38'  
Track history (hours):
 
Tides and Currents Weather Stations Pressure Air Temp Water Temp Dewpoint Dewpoint Depression Visibility Wind Speed Wind Dir Waves Ship Positions

Alkin Kalkavan

Last reported at 2015-Mar-25 03:29 UTC. Time now 2015-Mar-27 11:58 UTC.
Position N 33°57' E 032°48'.

Length 150 m; draft 6.3 m.

Type: Cargo ship. MMSI: 271000905.

Date/timePositionNaut miles runAvg speedWind from/ knotsBaromVisibWave heightAir tempDewpointWater temp
2015-Mar-25 03:29N 33°57' E 032°48'6015.2
2015-Mar-24 23:33N 33°17' E 033°42'1515.4
2015-Mar-24 22:33N 33°07' E 033°55'1514.8
2015-Mar-24 21:33N 33°01' E 034°11'1515.0
2015-Mar-24 20:33N 32°58' E 034°29'1514.8
2015-Mar-24 19:33N 32°55' E 034°46'5 0.4
2015-Mar-24 05:08N 32°52' E 034°51'915.2
2015-Mar-24 04:34N 32°44' E 034°48'1514.8
2015-Mar-24 03:33N 32°29' E 034°43'1515.1
2015-Mar-24 02:33N 32°15' E 034°38'  

Dump ship's entire track history